Weather

DAILY 7 DAY TOTAL
onrain

Note: Some stations are located near irrigated fields and may also report irrigation

Alliston Mount Forest Blyth Guelph Grand Bend Strathroy Woodstock Belmont Simcoe Leamington Chatham West Lorne






Chatham WIN - Historical Weather Data
Date Max Temp (°C) Min Temp (°C) Avg Temp (°C) Rain (mm) 7Day Rain(mm) Total Rain(mm) Avg RH (%)
9/23/2023 22.5 11.6 16.9 0.0 12.8 465.6 78.6
9/22/2023 25.4 14.0 19.5 0.0 12.8 465.6 84.0
9/21/2023 27.4 14.3 19.9 0.0 12.8 465.6 84.9
9/20/2023 24.4 11.7 18.2 0.0 12.8 465.6 84.5
9/19/2023 21.4 7.9 15.0 0.2 12.8 465.6 83.4
9/18/2023 20.1 9.9 14.8 0.2 16.4 465.4 92.8
9/17/2023 23.7 13.1 16.8 12.4 16.2 465.2 90.8
9/16/2023 22.7 7.4 15.5 0.0 3.8 452.8 81.4
9/15/2023 22.4 8.6 15.0 0.0 3.8 452.8 82.8
9/14/2023 21.1 7.5 13.9 0.0 3.8 452.8 86.3
9/13/2023 17.5 9.1 13.5 0.0 3.8 452.8 91.2
9/12/2023 21.9 13.7 18.6 3.8 7.0 452.8 92.1
9/11/2023 23.8 11.3 17.6 0.0 3.2 449.0 88.7
9/10/2023 21.8 14.6 17.8 0.0 3.2 449.0 95.3
9/9/2023 19.9 13.0 16.5 0.0 3.2 449.0 94.9
9/8/2023 19.8 15.1 17.0 0.0 3.2 449.0 95.9
9/7/2023 24.8 16.8 20.7 0.0 3.2 449.0 96.3
9/6/2023 28.2 21.6 23.9 3.2 3.4 449.0 97.1
9/5/2023 31.0 20.5 25.7 0.0 0.2 445.8 89.1
9/4/2023 31.2 20.8 25.6 0.0 3.2 445.8 86.6
9/3/2023 29.8 18.6 23.9 0.0 3.2 445.8 87.2
9/2/2023 26.7 12.2 19.6 0.0 3.2 445.8 89.6
9/1/2023 23.5 10.8 17.3 0.0 3.2 445.8 83.9
8/31/2023 22.6 7.3 15.0 0.2 4.0 445.8 82.2
8/30/2023 16.8 10.4 14.5 0.0 56.2 445.6 96.9
8/29/2023 24.9 10.4 18.0 3.0 74.2 445.6 88.2
8/28/2023 23.2 10.6 16.8 0.0 71.2 442.6 87.2
8/27/2023 22.1 10.9 16.4 0.0 71.2 442.6 88.5
8/26/2023 23.4 14.7 18.8 0.0 71.2 442.6 97.0
8/25/2023 23.4 18.6 20.6 0.8 71.2 442.6 97.4
8/24/2023 29.1 19.8 24.0 52.4 70.4 441.8 96.6
8/23/2023 23.4 15.8 19.3 18.0 44.6 389.4 99.2
8/22/2023 23.7 13.9 18.1 0.0 26.6 371.4 86.0
8/21/2023 25.6 15.9 20.9 0.0 46.4 371.4 93.9
8/20/2023 28.8 15.3 22.7 0.0 54.2 371.4 89.1
8/19/2023 24.8 9.7 17.3 0.0 54.2 371.4 82.4
8/18/2023 21.6 12.5 17.8 0.0 54.2 371.4 77.6
8/17/2023 25.4 18.4 20.6 26.6 55.4 371.4 93.3
8/16/2023 26.2 14.4 20.2 0.0 34.8 344.8 86.7
8/15/2023 24.4 17.4 19.8 19.8 34.8 344.8 95.8
8/14/2023 24.0 17.5 20.0 7.8 15.0 325.0 92.6
8/13/2023 26.3 14.7 21.1 0.0 7.2 317.2 85.8
8/12/2023 28.2 19.0 23.6 0.0 22.2 317.2 87.3
8/11/2023 25.1 13.1 19.8 1.2 22.2 317.2 88.0
8/10/2023 26.5 17.9 22.3 6.0 22.0 316.0 87.1
8/9/2023 28.3 18.0 23.0 0.0 16.0 310.0 85.1
8/8/2023 27.6 16.9 21.8 0.0 16.0 310.0 79.3
8/7/2023 21.6 17.4 20.1 0.0 16.0 310.0 95.3
8/6/2023 25.0 17.5 20.9 15.0 16.0 310.0 98.6
8/5/2023 25.8 15.1 20.5 0.0 1.0 295.0 88.9
8/4/2023 26.4 16.8 22.2 1.0 5.4 295.0 88.1
8/3/2023 28.9 17.4 23.4 0.0 5.2 294.0 82.0
8/2/2023 27.0 14.6 21.0 0.0 5.8 294.0 86.4
8/1/2023 24.3 14.2 19.2 0.0 25.0 294.0 88.2
7/31/2023 25.1 12.6 19.1 0.0 26.0 294.0 84.0
7/30/2023 25.2 14.5 19.8 0.0 26.4 294.0 84.1
7/29/2023 24.9 17.0 22.0 4.4 26.4 294.0 92.0
7/28/2023 30.8 17.5 23.4 0.8 22.2 289.6 97.4
7/27/2023 28.2 18.9 23.5 0.6 21.4 288.8 92.7
7/26/2023 28.7 19.3 23.2 19.2 49.6 288.2 93.5
7/25/2023 30.0 16.9 23.6 1.0 30.4 269.0 83.1
7/24/2023 28.9 16.8 22.5 0.4 29.4 268.0 84.8
7/23/2023 28.2 15.2 21.6 0.0 29.0 267.6 83.0
7/22/2023 26.9 14.1 21.0 0.2 29.0 267.6 80.3
7/21/2023 24.7 15.8 20.4 0.0 41.6 267.4 87.1
7/20/2023 28.6 16.9 21.4 28.8 41.6 267.4 92.2
7/19/2023 26.5 13.9 20.7 0.0 12.8 238.6 83.3
7/18/2023 25.5 14.9 20.7 0.0 20.6 238.6 75.6
7/17/2023 27.3 15.8 22.1 0.0 30.4 238.6 77.4
7/16/2023 27.6 17.7 22.8 0.0 30.4 238.6 83.7
7/15/2023 23.8 17.9 21.1 12.8 30.4 238.6 99.6
7/14/2023 27.0 16.1 21.6 0.0 28.8 225.8 88.4
7/13/2023 25.1 16.5 20.7 0.0 28.8 225.8 89.4
7/12/2023 25.1 16.3 20.1 7.8 29.6 225.8 87.9
7/11/2023 29.5 17.0 23.3 9.8 21.8 218.0 81.1
7/10/2023 29.2 13.7 22.1 0.0 12.0 208.2 75.3
7/9/2023 23.4 15.5 19.8 0.0 23.0 208.2 92.1
7/8/2023 23.1 16.5 19.3 11.2 79.2 208.2 96.7
7/7/2023 26.5 16.4 21.2 0.0 68.0 197.0 79.6
7/6/2023 29.1 20.6 24.6 0.8 68.0 197.0 91.2
7/5/2023 31.3 19.6 25.8 0.0 67.2 196.2 81.0
7/4/2023 30.6 17.8 23.9 0.0 67.2 196.2 83.3
7/3/2023 26.4 20.0 22.7 11.0 69.6 196.2 98.1
7/2/2023 24.9 21.2 22.6 56.2 91.4 185.2 99.9
7/1/2023 30.0 20.1 24.7 0.0 47.0 129.0 89.8
6/30/2023 28.2 18.6 23.3 0.0 48.0 129.0 91.9
6/29/2023 26.1 13.9 20.1 0.0 59.0 129.0 85.7
6/28/2023 24.5 14.0 18.8 0.0 59.0 129.0 83.2
6/27/2023 19.8 17.1 18.8 2.4 59.0 129.0 99.7
6/26/2023 22.4 17.5 19.8 32.8 56.6 126.6 99.8
6/25/2023 29.1 17.6 22.6 11.8 23.8 93.8 89.2
6/24/2023 27.6 17.9 21.7 1.0 12.0 82.0 92.1
6/23/2023 20.5 17.7 19.1 11.0 11.0 81.0 98.9
6/22/2023 24.3 15.9 20.7 0.0 0.0 70.0 77.2
6/21/2023 27.9 17.1 23.2 0.0 4.8 70.0 67.3
6/20/2023 28.1 18.7 25.0 0.0 4.8 70.0 66.5
6/19/2023 27.8 11.6 21.0 0.0 23.6 70.0 64.9
6/18/2023 25.6 10.3 17.1 0.0 27.2 70.0 74.2
6/17/2023 25.3 11.4 18.5 0.0 42.4 70.0 74.1
6/16/2023 19.0 13.0 16.3 0.0 42.4 70.0 93.7
6/15/2023 22.7 12.2 16.8 4.8 42.4 70.0 90.0
6/14/2023 21.1 9.4 14.7 0.0 37.6 65.2 89.7
6/13/2023 20.4 9.1 13.5 18.8 37.6 65.2 90.7
6/12/2023 17.6 12.3 14.5 3.6 18.8 46.4 89.4
6/11/2023 25.6 14.8 18.5 15.2 15.2 42.8 76.3
6/10/2023 27.6 12.7 20.3 0.0 0.0 27.6 58.2
6/9/2023 24.3 9.0 17.3 0.0 0.0 27.6 67.0
6/8/2023 22.7 8.9 15.6 0.0 0.0 27.6 61.0
6/7/2023 22.3 8.3 15.4 0.0 0.0 27.6 53.7
6/6/2023 23.2 11.6 17.5 0.0 0.0 27.6 61.2
6/5/2023 25.1 11.1 18.1 0.0 0.0 27.6 55.7
6/4/2023 23.9 12.0 18.2 0.0 0.0 27.6 49.2
6/3/2023 30.0 16.5 22.6 0.0 0.0 27.6 63.3
6/2/2023 32.8 15.1 24.8 0.0 0.0 27.6 52.8
6/1/2023 31.4 13.3 23.8 0.0 0.0 27.6 55.6
5/31/2023 29.6 15.5 23.0 0.0 0.0 27.6 58.0
5/30/2023 29.6 14.9 22.2 0.0 0.0 27.6 61.9
5/29/2023 30.1 10.3 21.2 0.0 0.0 27.6 46.7
5/28/2023 27.3 10.5 18.8 0.0 0.0 27.6 52.4
5/27/2023 25.0 5.3 16.6 0.0 0.0 27.6 50.9
5/26/2023 21.4 3.9 13.3 0.0 7.8 27.6 59.5
5/25/2023 18.2 5.3 10.6 0.0 13.6 27.6 59.5
5/24/2023 19.9 6.6 13.6 0.0 13.6 27.6 77.3
5/23/2023 26.2 10.3 17.9 0.0 13.6 27.6 69.6
5/22/2023 20.5 8.7 14.9 0.0 13.6 27.6 83.3
5/21/2023 23.4 10.3 16.2 0.0 13.6 27.6 72.8
5/20/2023 14.6 11.2 13.1 7.8 13.6 27.6 89.7
5/19/2023 25.1 6.1 16.4 5.8 5.8 19.8 70.7
5/18/2023 16.9 -0.5 9.3 0.0 0.0 14.0 66.6
5/17/2023 12.1 2.7 8.0 0.0 0.0 14.0 64.9
5/16/2023 24.9 7.4 15.2 0.0 0.0 14.0 60.9
5/15/2023 21.3 4.4 13.6 0.0 0.0 14.0 58.8
5/14/2023 19.8 8.7 13.6 0.0 0.0 14.0 54.2
5/13/2023 26.1 13.2 19.4 0.0 1.0 14.0 62.4
5/12/2023 26.4 10.1 19.3 0.0 1.0 14.0 61.5
5/11/2023 26.4 8.3 18.2 0.0 1.0 14.0 59.4
5/10/2023 21.1 5.2 13.8 0.0 1.2 14.0 65.4
5/9/2023 19.9 7.6 13.5 0.0 3.0 14.0 54.3
5/8/2023 20.1 9.6 14.3 0.0 6.4 14.0 78.1
5/7/2023 23.0 11.0 16.2 1.0 14.0 14.0 83.8
5/6/2023 19.0 6.9 12.9 0.0 16.8 13.0 76.5
5/5/2023 17.8 4.0 11.0 0.0 23.6 13.0 80.5
5/4/2023 16.2 6.9 10.6 0.2 29.4 13.0 86.3
5/3/2023 10.8 2.6 6.9 1.8 29.2 12.8 96.1
5/2/2023 6.8 3.0 4.5 3.4 27.6 11.0 94.0
5/1/2023 9.5 3.4 6.3 7.6 27.0 7.6 90.6